Time;durP1;ratioP1;P1;durP2;ratioP2;P2;SDS_P1;SDS_P2;PMS_P1;PMS_P2;Temp;Humidity;BMP_temperature;BMP_pressure;BME280_temperature;BME280_humidity;BME280_pressure;Samples;Min_cycle;Max_cycle;Signal;HPM_P1;HPM_P2
2022/03/17 00:00:38;;;;;;;11.88;9.43;;;10.40;99.90;;;;;;5075736;28;20032;-85
2022/03/17 00:03:03;;;;;;;15.45;9.32;;;10.40;99.90;;;;;;5075844;28;20395;-85
2022/03/17 00:05:29;;;;;;;13.40;10.07;;;10.40;99.90;;;;;;5093759;28;20027;-85
2022/03/17 00:07:55;;;;;;;12.00;8.95;;;10.30;99.90;;;;;;5075492;28;20027;-85
2022/03/17 00:10:21;;;;;;;12.70;9.48;;;10.30;99.90;;;;;;5093711;28;20020;-85
2022/03/17 00:12:48;;;;;;;12.43;9.52;;;10.30;99.90;;;;;;5093636;28;20471;-85
2022/03/17 00:15:14;;;;;;;14.15;10.18;;;10.30;99.90;;;;;;5075436;28;20028;-85
2022/03/17 00:17:43;;;;;;;13.73;8.90;;;10.30;99.90;;;;;;5075377;28;20188;-85
2022/03/17 00:20:10;;;;;;;10.60;8.88;;;10.30;99.90;;;;;;5075039;28;20055;-85
2022/03/17 00:22:36;;;;;;;12.63;9.13;;;10.30;99.90;;;;;;5075275;28;20020;-85
2022/03/17 00:25:04;;;;;;;12.85;9.98;;;10.30;99.90;;;;;;5093407;28;20020;-85
2022/03/17 00:27:30;;;;;;;12.32;9.38;;;10.30;99.90;;;;;;5093361;28;20023;-85
2022/03/17 00:29:57;;;;;;;13.00;9.63;;;10.30;99.90;;;;;;5093349;28;20066;-85
2022/03/17 00:32:23;;;;;;;13.63;10.20;;;10.20;99.90;;;;;;5075192;28;20027;-85
2022/03/17 00:37:33;;;;;;;15.68;9.57;;;10.20;99.90;;;;;;5092773;28;20494;-85
2022/03/17 00:39:59;;;;;;;15.02;10.00;;;10.20;99.90;;;;;;5093171;28;20020;-84
2022/03/17 00:42:24;;;;;;;13.55;10.10;;;10.20;99.90;;;;;;5074979;28;20024;-85
2022/03/17 00:44:50;;;;;;;13.93;10.50;;;10.20;99.90;;;;;;5074948;28;20029;-85
2022/03/17 00:47:16;;;;;;;13.15;10.05;;;10.20;99.90;;;;;;5074833;28;20031;-85
2022/03/17 00:49:42;;;;;;;15.40;11.07;;;10.20;99.90;;;;;;5074981;28;20054;-85
2022/03/17 00:52:11;;;;;;;12.23;9.70;;;10.10;99.90;;;;;;5074977;28;20020;-85
2022/03/17 00:54:37;;;;;;;12.32;9.23;;;10.20;99.90;;;;;;5093036;28;20016;-85
2022/03/17 00:57:03;;;;;;;13.02;10.10;;;10.10;99.90;;;;;;5074822;28;20020;-85
2022/03/17 00:59:29;;;;;;;16.15;10.15;;;10.10;99.90;;;;;;5074855;28;20027;-85
2022/03/17 01:01:54;;;;;;;14.82;9.90;;;10.10;99.90;;;;;;5092897;28;20024;-85
2022/03/17 01:04:20;;;;;;;16.85;10.80;;;10.20;99.90;;;;;;5074743;28;20024;-85
2022/03/17 01:06:46;;;;;;;14.40;10.32;;;10.10;99.90;;;;;;5074820;28;20027;-84
2022/03/17 01:09:11;;;;;;;12.88;9.82;;;10.10;99.90;;;;;;5074808;28;20016;-85
2022/03/17 01:11:37;;;;;;;12.02;10.20;;;10.10;99.90;;;;;;5074958;28;20044;-84
2022/03/17 01:14:03;;;;;;;12.80;9.38;;;10.10;99.90;;;;;;5074774;28;20483;-85
2022/03/17 01:16:28;;;;;;;14.27;10.43;;;10.10;99.90;;;;;;5074782;28;20028;-85
2022/03/17 01:18:54;;;;;;;11.55;9.52;;;10.10;99.90;;;;;;5074610;28;20034;-85
2022/03/17 01:21:19;;;;;;;12.65;9.68;;;10.10;99.90;;;;;;5074622;28;20060;-85
2022/03/17 01:23:45;;;;;;;14.45;10.48;;;10.00;99.90;;;;;;5074427;28;20089;-85
2022/03/17 01:26:11;;;;;;;13.48;10.45;;;10.00;99.90;;;;;;5074649;28;20021;-84
2022/03/17 01:28:37;;;;;;;13.90;9.85;;;10.00;99.90;;;;;;5074636;28;20016;-85
2022/03/17 01:31:02;;;;;;;15.80;10.35;;;10.00;99.90;;;;;;5092740;28;20055;-84
2022/03/17 01:33:28;;;;;;;14.52;10.05;;;10.00;99.90;;;;;;5074573;28;20076;-85
2022/03/17 01:35:53;;;;;;;13.95;9.95;;;10.00;99.90;;;;;;5074598;28;20372;-85
2022/03/17 01:38:19;;;;;;;14.73;10.45;;;10.00;99.90;;;;;;5074661;28;20039;-85
2022/03/17 01:40:45;;;;;;;14.10;10.65;;;10.00;99.90;;;;;;5074535;28;20035;-85
2022/03/17 01:43:11;;;;;;;16.70;10.60;;;10.00;99.90;;;;;;5074343;28;20031;-85
2022/03/17 01:45:36;;;;;;;16.15;10.68;;;10.00;99.90;;;;;;5074461;28;20030;-85
2022/03/17 01:48:03;;;;;;;17.73;10.32;;;10.00;99.90;;;;;;5075024;28;20343;-85
2022/03/17 01:50:29;;;;;;;17.85;10.70;;;10.00;99.90;;;;;;5078114;28;20134;-85
2022/03/17 01:52:54;;;;;;;13.73;10.13;;;9.90;99.90;;;;;;5078210;28;20145;-85
2022/03/17 01:55:21;;;;;;;16.23;10.43;;;9.90;99.90;;;;;;5078379;28;20070;-85
2022/03/17 01:57:48;;;;;;;13.77;9.65;;;9.90;99.90;;;;;;5077953;28;20024;-84
2022/03/17 02:00:17;;;;;;;16.85;11.00;;;9.90;99.90;;;;;;5096173;28;20097;-85
2022/03/17 02:02:44;;;;;;;13.38;10.80;;;9.90;99.90;;;;;;5096045;28;20499;-85
2022/03/17 02:05:11;;;;;;;13.77;10.45;;;9.90;99.90;;;;;;5077815;28;20052;-85
2022/03/17 02:07:37;;;;;;;11.63;9.38;;;9.90;99.90;;;;;;5078107;28;20020;-85
2022/03/17 02:10:04;;;;;;;13.75;9.88;;;9.90;99.90;;;;;;5096289;28;20035;-85
2022/03/17 02:15:14;;;;;;;13.38;10.00;;;9.90;99.90;;;;;;5096313;28;20027;-85
2022/03/17 02:17:40;;;;;;;13.38;10.02;;;9.90;99.90;;;;;;5077723;28;20032;-85
2022/03/17 02:20:11;;;;;;;19.73;10.07;;;9.90;99.90;;;;;;5077385;28;20072;-85
2022/03/17 02:22:41;;;;;;;11.98;10.05;;;9.90;99.90;;;;;;5077452;28;20024;-85
2022/03/17 02:27:51;;;;;;;11.02;9.75;;;9.80;99.90;;;;;;5096316;28;20069;-85
2022/03/17 02:30:20;;;;;;;13.32;9.25;;;9.80;99.90;;;;;;5077430;28;20114;-85
2022/03/17 02:32:47;;;;;;;15.57;10.07;;;9.80;99.90;;;;;;5077464;28;20117;-85
2022/03/17 02:35:15;;;;;;;14.88;10.00;;;9.80;99.90;;;;;;5077185;28;20493;-85
2022/03/17 02:37:41;;;;;;;13.45;9.98;;;9.80;99.90;;;;;;5095491;28;20074;-85
2022/03/17 02:40:10;;;;;;;15.25;10.90;;;9.80;99.90;;;;;;5077661;28;20032;-85
2022/03/17 02:42:37;;;;;;;12.95;10.25;;;9.80;99.90;;;;;;5077114;28;20403;-85
2022/03/17 02:45:04;;;;;;;13.85;9.75;;;9.80;99.90;;;;;;5077427;28;20024;-85
2022/03/17 02:47:30;;;;;;;12.52;9.95;;;9.80;99.90;;;;;;5076994;28;20115;-85
2022/03/17 02:49:56;;;;;;;14.55;10.80;;;9.80;99.90;;;;;;5095285;28;20043;-85
2022/03/17 02:52:23;;;;;;;14.50;10.18;;;9.80;99.90;;;;;;5077053;28;20049;-85
2022/03/17 02:54:49;;;;;;;14.15;10.93;;;9.80;99.90;;;;;;5076923;28;20027;-85
2022/03/17 02:57:15;;;;;;;13.25;9.98;;;9.80;99.90;;;;;;5076969;28;20115;-85
2022/03/17 02:59:41;;;;;;;13.38;9.82;;;9.80;99.90;;;;;;5094163;28;20047;-85
2022/03/17 03:02:06;;;;;;;14.55;10.85;;;9.70;99.90;;;;;;5076772;28;20107;-85
2022/03/17 03:04:35;;;;;;;13.35;10.23;;;9.70;99.90;;;;;;5076795;28;20491;-85
2022/03/17 03:07:02;;;;;;;15.82;10.73;;;9.70;99.90;;;;;;5076815;28;20022;-85
2022/03/17 03:09:31;;;;;;;12.38;10.27;;;9.70;99.90;;;;;;5076724;28;20024;-85
2022/03/17 03:11:57;;;;;;;13.55;10.20;;;9.70;99.90;;;;;;5094845;28;20487;-85
2022/03/17 03:14:23;;;;;;;14.20;10.13;;;9.70;99.90;;;;;;5076629;28;20024;-85
2022/03/17 03:16:49;;;;;;;15.18;10.57;;;9.70;99.90;;;;;;5076533;28;20117;-85
2022/03/17 03:19:15;;;;;;;13.82;10.00;;;9.70;99.90;;;;;;5076276;28;20371;-85
2022/03/17 03:21:43;;;;;;;13.98;10.68;;;9.70;99.90;;;;;;5095007;28;20034;-85
2022/03/17 03:24:13;;;;;;;13.82;10.75;;;9.70;99.90;;;;;;5094595;28;20352;-85
2022/03/17 03:26:42;;;;;;;13.65;9.90;;;9.70;99.90;;;;;;5076413;28;20024;-85
2022/03/17 03:29:28;;;;;;;12.38;9.63;;;9.70;99.90;;;;;;5094510;28;20020;-85
2022/03/17 03:32:04;;;;;;;15.02;10.98;;;9.70;99.90;;;;;;5076308;28;20070;-85
2022/03/17 03:34:30;;;;;;;14.00;10.27;;;9.70;99.90;;;;;;5094414;28;20028;-85
2022/03/17 03:39:41;;;;;;;14.25;10.50;;;9.60;99.90;;;;;;5095177;28;20467;-85
2022/03/17 03:42:07;;;;;;;13.63;10.18;;;9.70;99.90;;;;;;5094296;28;20056;-85
2022/03/17 03:44:33;;;;;;;12.93;10.30;;;9.60;99.90;;;;;;5076040;28;20036;-85
2022/03/17 03:46:59;;;;;;;14.27;10.65;;;9.60;99.90;;;;;;5094194;28;20527;-85
2022/03/17 03:49:25;;;;;;;12.95;10.20;;;9.60;99.90;;;;;;5076041;28;20063;-85
2022/03/17 03:51:51;;;;;;;15.50;10.77;;;9.60;99.90;;;;;;5075849;28;20042;-84
2022/03/17 03:54:17;;;;;;;14.05;11.05;;;9.60;99.90;;;;;;5075818;28;20058;-85
2022/03/17 03:56:46;;;;;;;13.13;10.52;;;9.60;99.90;;;;;;5094011;28;20020;-85
2022/03/17 03:59:15;;;;;;;13.52;10.40;;;9.60;99.90;;;;;;5075673;28;20079;-85
2022/03/17 04:01:41;;;;;;;12.73;10.15;;;9.60;99.90;;;;;;5075651;28;20024;-85
2022/03/17 04:04:07;;;;;;;14.80;10.20;;;9.60;99.90;;;;;;5075649;28;20028;-85
2022/03/17 04:06:36;;;;;;;14.00;10.60;;;9.60;99.90;;;;;;5093709;28;20021;-85
2022/03/17 04:09:03;;;;;;;13.52;10.00;;;9.60;99.90;;;;;;5075566;28;20016;-85
2022/03/17 04:11:29;;;;;;;14.60;10.13;;;9.60;99.90;;;;;;5075362;28;20069;-85
2022/03/17 04:13:54;;;;;;;13.75;10.27;;;9.50;99.90;;;;;;5075425;28;20458;-85
2022/03/17 04:16:20;;;;;;;15.27;10.27;;;9.50;99.90;;;;;;5093620;28;20437;-85
2022/03/17 04:18:45;;;;;;;12.25;9.75;;;9.50;99.90;;;;;;5093440;28;20028;-85
2022/03/17 04:21:11;;;;;;;11.00;9.30;;;9.50;99.90;;;;;;5075210;28;20051;-85
2022/03/17 04:23:37;;;;;;;14.25;9.90;;;9.50;99.90;;;;;;5093720;28;20483;-85
2022/03/17 04:26:02;;;;;;;12.38;10.38;;;9.50;99.90;;;;;;5075181;28;20373;-85
2022/03/17 04:28:28;;;;;;;14.07;10.82;;;9.50;99.90;;;;;;5075271;28;20020;-85
2022/03/17 04:30:54;;;;;;;12.95;9.68;;;9.50;99.90;;;;;;5075500;28;20020;-85
2022/03/17 04:33:19;;;;;;;13.43;10.02;;;9.50;99.90;;;;;;5075653;28;20028;-85
2022/03/17 04:35:45;;;;;;;13.55;10.30;;;9.50;99.90;;;;;;5075873;28;20119;-85
2022/03/17 04:38:10;;;;;;;13.20;10.60;;;9.50;99.90;;;;;;5075227;28;20051;-85
2022/03/17 04:40:36;;;;;;;15.93;10.45;;;9.50;99.90;;;;;;5075134;28;20020;-85
2022/03/17 04:43:02;;;;;;;14.23;10.02;;;9.50;99.90;;;;;;5074966;28;20028;-84
2022/03/17 04:45:27;;;;;;;15.45;10.05;;;9.50;99.90;;;;;;5093231;28;20073;-85
2022/03/17 04:47:53;;;;;;;13.88;10.38;;;9.50;99.90;;;;;;5075003;28;20020;-85
2022/03/17 04:50:19;;;;;;;13.15;10.57;;;9.50;99.90;;;;;;5075051;28;20055;-85
2022/03/17 04:55:29;;;;;;;13.30;10.40;;;9.40;99.90;;;;;;5093900;28;20062;-84
2022/03/17 04:57:54;;;;;;;14.15;10.95;;;9.40;99.90;;;;;;5074882;28;20394;-85
2022/03/17 05:00:20;;;;;;;13.57;9.82;;;9.50;99.90;;;;;;5074878;28;20039;-85
2022/03/17 05:02:46;;;;;;;13.20;10.40;;;9.40;99.90;;;;;;5074802;28;20061;-85
2022/03/17 05:05:11;;;;;;;13.23;9.63;;;9.40;99.90;;;;;;5075030;28;20502;-84
2022/03/17 05:07:37;;;;;;;13.45;10.38;;;9.40;99.90;;;;;;5074846;28;20028;-85
2022/03/17 05:10:03;;;;;;;12.90;10.57;;;9.40;99.90;;;;;;5093198;28;20036;-85
2022/03/17 05:12:29;;;;;;;13.50;10.10;;;9.40;99.90;;;;;;5074796;28;20024;-85
2022/03/17 05:14:55;;;;;;;13.43;10.38;;;9.40;99.90;;;;;;5074743;28;20058;-85
2022/03/17 05:17:20;;;;;;;16.08;10.95;;;9.40;99.90;;;;;;5074956;28;20024;-85
2022/03/17 05:19:46;;;;;;;18.83;10.93;;;9.40;99.90;;;;;;5092574;28;20102;-85
2022/03/17 05:22:12;;;;;;;13.35;10.20;;;9.40;99.90;;;;;;5092844;28;20437;-85
2022/03/17 05:24:37;;;;;;;15.80;10.27;;;9.40;99.90;;;;;;5077768;28;20050;-85
2022/03/17 05:27:03;;;;;;;14.70;10.23;;;9.40;99.90;;;;;;5078728;28;20111;-85
2022/03/17 05:29:29;;;;;;;14.77;11.02;;;9.40;99.90;;;;;;5078561;28;20028;-84
2022/03/17 05:31:55;;;;;;;12.63;10.25;;;9.40;99.90;;;;;;5078493;28;20106;-85
2022/03/17 05:34:20;;;;;;;16.15;10.18;;;9.40;99.90;;;;;;5078448;28;20028;-85
2022/03/17 05:36:46;;;;;;;13.00;10.20;;;9.40;99.90;;;;;;5078459;28;20493;-84
2022/03/17 05:39:11;;;;;;;12.52;9.80;;;9.30;99.90;;;;;;5096627;28;20024;-85
2022/03/17 05:41:37;;;;;;;13.52;10.18;;;9.30;99.90;;;;;;5096644;28;20112;-85
2022/03/17 05:44:03;;;;;;;11.30;9.32;;;9.30;99.90;;;;;;5078191;28;20148;-84
2022/03/17 05:46:28;;;;;;;12.48;10.15;;;9.30;99.90;;;;;;5078221;28;20032;-85
2022/03/17 05:48:55;;;;;;;13.88;10.75;;;9.30;99.90;;;;;;5078268;28;20486;-85
2022/03/17 05:51:21;;;;;;;14.70;10.32;;;9.30;99.90;;;;;;5096370;28;20012;-85
2022/03/17 05:53:46;;;;;;;13.27;10.25;;;9.30;99.90;;;;;;5078128;28;20035;-85
2022/03/17 05:56:12;;;;;;;13.10;9.73;;;9.30;99.90;;;;;;5078085;28;20024;-84
2022/03/17 05:58:38;;;;;;;12.23;9.90;;;9.30;99.90;;;;;;5077998;28;20020;-85
2022/03/17 06:01:03;;;;;;;15.63;10.38;;;9.30;99.90;;;;;;5078185;28;20459;-85
2022/03/17 06:03:29;;;;;;;12.73;10.05;;;9.30;99.90;;;;;;5077942;28;20024;-85
2022/03/17 06:05:55;;;;;;;14.70;10.43;;;9.30;99.90;;;;;;5077978;28;20383;-85
2022/03/17 06:08:20;;;;;;;13.88;10.93;;;9.30;99.90;;;;;;5077815;28;20073;-85
2022/03/17 06:10:46;;;;;;;13.18;10.48;;;9.30;99.90;;;;;;5077880;28;20024;-85
2022/03/17 06:13:12;;;;;;;14.18;11.02;;;9.30;99.90;;;;;;5077809;28;20073;-85
2022/03/17 06:15:37;;;;;;;14.45;10.68;;;9.20;99.90;;;;;;5095969;28;20054;-85
2022/03/17 06:18:05;;;;;;;17.95;10.70;;;9.30;99.90;;;;;;5077654;28;20030;-85
2022/03/17 06:20:33;;;;;;;13.02;10.18;;;9.30;99.90;;;;;;5077470;28;20050;-85
2022/03/17 06:23:00;;;;;;;15.38;10.95;;;9.30;99.90;;;;;;5077478;28;20430;-85
2022/03/17 06:25:27;;;;;;;14.65;10.68;;;9.30;99.90;;;;;;5077811;28;20463;-85
2022/03/17 06:27:53;;;;;;;13.35;10.43;;;9.30;99.90;;;;;;5077658;28;20114;-85
2022/03/17 06:30:26;;;;;;;14.18;10.57;;;9.30;99.90;;;;;;5077550;28;20020;-85
2022/03/17 06:32:52;;;;;;;14.02;11.13;;;9.30;99.90;;;;;;5077485;28;20024;-85
2022/03/17 06:35:20;;;;;;;17.25;11.13;;;9.30;99.90;;;;;;5076695;28;20110;-85
2022/03/17 06:37:48;;;;;;;14.68;11.00;;;9.30;99.90;;;;;;5077446;28;20031;-85
2022/03/17 06:40:16;;;;;;;15.18;11.38;;;9.30;99.90;;;;;;5077351;28;20498;-85
2022/03/17 06:42:42;;;;;;;16.92;11.60;;;9.20;99.90;;;;;;5077043;28;20027;-85
2022/03/17 06:45:09;;;;;;;16.88;10.68;;;9.30;99.90;;;;;;5077207;28;20028;-85
2022/03/17 06:47:34;;;;;;;17.17;11.85;;;9.30;99.90;;;;;;5077285;28;20020;-85
2022/03/17 06:50:00;;;;;;;17.45;11.95;;;9.30;99.90;;;;;;5095574;28;20039;-85
2022/03/17 06:52:26;;;;;;;14.27;11.43;;;9.20;99.90;;;;;;5077081;28;20020;-85
2022/03/17 06:54:52;;;;;;;16.90;11.43;;;9.20;99.90;;;;;;5077086;28;20024;-85
2022/03/17 06:57:22;;;;;;;17.60;12.65;;;9.20;99.90;;;;;;5095234;28;20414;-85
2022/03/17 06:59:49;;;;;;;16.13;11.90;;;9.30;99.90;;;;;;5095134;28;20052;-85
2022/03/17 07:02:15;;;;;;;17.65;12.98;;;9.20;99.90;;;;;;5076871;28;20101;-85
2022/03/17 07:04:42;;;;;;;20.38;12.32;;;9.30;99.90;;;;;;5076763;28;20056;-85
2022/03/17 07:07:07;;;;;;;19.02;12.20;;;9.20;99.90;;;;;;5076815;28;20110;-84
2022/03/17 07:09:34;;;;;;;18.83;13.13;;;9.30;99.90;;;;;;5076859;28;20055;-85
2022/03/17 07:11:59;;;;;;;18.05;13.20;;;9.20;99.90;;;;;;5095156;28;20027;-85
2022/03/17 07:14:25;;;;;;;18.35;13.05;;;9.30;99.90;;;;;;5076918;28;20107;-84
2022/03/17 07:16:51;;;;;;;20.58;13.32;;;9.20;99.90;;;;;;5076950;28;20425;-84
2022/03/17 07:19:16;;;;;;;18.48;12.80;;;9.20;99.90;;;;;;5076488;28;20135;-85
2022/03/17 07:21:42;;;;;;;19.52;12.43;;;9.30;99.90;;;;;;5076491;28;20036;-84
2022/03/17 07:24:09;;;;;;;19.35;13.43;;;9.30;99.90;;;;;;5076316;28;20077;-84
2022/03/17 07:26:35;;;;;;;21.17;13.00;;;9.20;99.90;;;;;;5076435;28;20028;-84
2022/03/17 07:29:02;;;;;;;18.90;13.65;;;9.30;99.90;;;;;;5076655;28;20020;-84
2022/03/17 07:31:28;;;;;;;19.75;13.10;;;9.20;99.90;;;;;;5076647;28;20043;-84
2022/03/17 07:33:54;;;;;;;22.67;13.80;;;9.20;99.90;;;;;;5076437;28;20024;-84
2022/03/17 07:36:21;;;;;;;18.92;13.32;;;9.30;99.90;;;;;;5094651;28;20483;-84
2022/03/17 07:38:47;;;;;;;16.85;11.65;;;9.20;99.90;;;;;;5076463;28;20492;-85
2022/03/17 07:41:13;;;;;;;17.23;12.45;;;9.30;99.90;;;;;;5094222;28;20475;-85
2022/03/17 07:43:41;;;;;;;18.52;12.30;;;9.30;99.90;;;;;;5075861;28;20028;-85
2022/03/17 07:46:07;;;;;;;19.10;12.98;;;9.20;99.90;;;;;;5075482;28;20026;-85
2022/03/17 07:48:33;;;;;;;16.35;12.27;;;9.30;99.90;;;;;;5075790;28;20024;-85
2022/03/17 07:50:59;;;;;;;19.05;12.40;;;9.30;99.90;;;;;;5094076;28;20529;-85
2022/03/17 07:53:25;;;;;;;16.35;12.70;;;9.20;99.90;;;;;;5094010;28;20054;-85
2022/03/17 07:55:54;;;;;;;15.43;11.95;;;9.30;99.90;;;;;;5094114;28;20031;-85
2022/03/17 07:58:21;;;;;;;16.80;12.75;;;9.30;99.90;;;;;;5093950;28;20035;-85
2022/03/17 08:00:48;;;;;;;18.02;12.27;;;9.30;99.90;;;;;;5075637;28;20031;-86
2022/03/17 08:03:13;;;;;;;18.75;13.23;;;9.30;99.90;;;;;;5075461;28;20024;-85
2022/03/17 08:05:39;;;;;;;18.40;12.18;;;9.30;99.90;;;;;;5093826;28;20024;-85
2022/03/17 08:08:05;;;;;;;17.25;12.60;;;9.30;99.90;;;;;;5075537;28;20054;-85
2022/03/17 08:10:30;;;;;;;18.67;11.85;;;9.30;99.90;;;;;;5075580;28;20028;-86
2022/03/17 08:12:56;;;;;;;18.83;12.18;;;9.30;99.90;;;;;;5075494;28;20024;-85
2022/03/17 08:15:22;;;;;;;17.02;13.18;;;9.30;99.90;;;;;;5076062;28;20139;-85
2022/03/17 08:17:48;;;;;;;14.73;12.10;;;9.30;99.90;;;;;;5075724;28;20483;-85
2022/03/17 08:20:14;;;;;;;14.73;11.85;;;9.30;99.90;;;;;;5075401;28;20158;-85
2022/03/17 08:22:42;;;;;;;18.00;12.43;;;9.20;99.90;;;;;;5075654;28;20024;-85
2022/03/17 08:25:08;;;;;;;16.85;11.85;;;9.30;99.90;;;;;;5075569;28;20020;-85
2022/03/17 08:27:38;;;;;;;15.85;12.30;;;9.30;99.90;;;;;;5075258;28;20051;-85
2022/03/17 08:30:05;;;;;;;16.20;13.02;;;9.20;99.90;;;;;;5075225;28;20024;-85
2022/03/17 08:32:31;;;;;;;17.58;12.70;;;9.30;99.90;;;;;;5075082;28;20034;-85
2022/03/17 08:34:56;;;;;;;19.40;11.73;;;9.20;99.90;;;;;;5075507;28;20019;-85
2022/03/17 08:37:22;;;;;;;17.95;13.00;;;9.30;99.90;;;;;;5075725;28;20027;-85
2022/03/17 08:39:51;;;;;;;14.73;11.75;;;9.30;99.90;;;;;;5093811;28;20108;-85
2022/03/17 08:42:17;;;;;;;16.23;12.10;;;9.20;99.90;;;;;;5075442;28;20534;-85
2022/03/17 08:44:43;;;;;;;16.25;13.05;;;9.30;99.90;;;;;;5075264;28;20107;-84
2022/03/17 08:49:53;;;;;;;16.80;12.43;;;9.30;99.90;;;;;;5094042;28;20074;-84
2022/03/17 08:52:21;;;;;;;18.75;13.48;;;9.30;99.90;;;;;;5075261;28;20029;-84
2022/03/17 08:54:47;;;;;;;16.88;12.85;;;9.30;99.90;;;;;;5075205;28;20028;-84
2022/03/17 08:57:13;;;;;;;18.85;12.40;;;9.20;99.90;;;;;;5074649;28;20020;-84
2022/03/17 08:59:39;;;;;;;19.50;12.95;;;9.30;99.90;;;;;;5074462;28;20398;-84
2022/03/17 09:02:07;;;;;;;15.73;12.35;;;9.30;99.90;;;;;;5093247;28;20052;-84
2022/03/17 09:04:33;;;;;;;22.42;13.65;;;9.30;99.90;;;;;;5092884;28;20016;-84
2022/03/17 09:07:00;;;;;;;18.25;13.02;;;9.30;99.90;;;;;;5092900;28;20024;-84
2022/03/17 09:09:31;;;;;;;18.83;13.30;;;9.30;99.90;;;;;;5093017;28;20024;-84
2022/03/17 09:11:57;;;;;;;17.88;12.73;;;9.30;99.90;;;;;;5074792;28;20540;-84
2022/03/17 09:14:23;;;;;;;19.10;12.43;;;9.30;99.90;;;;;;5075422;28;20058;-84
2022/03/17 09:16:49;;;;;;;19.10;13.70;;;9.30;99.90;;;;;;5074788;28;20027;-85
2022/03/17 09:19:15;;;;;;;17.20;13.05;;;9.30;99.90;;;;;;5074628;28;20029;-85
2022/03/17 09:21:41;;;;;;;18.42;12.25;;;9.30;99.90;;;;;;5074823;28;20036;-84
2022/03/17 09:24:07;;;;;;;17.30;13.13;;;9.30;99.90;;;;;;5074913;28;20102;-84
2022/03/17 09:26:33;;;;;;;17.75;12.60;;;9.30;99.90;;;;;;5075003;28;20024;-85
2022/03/17 09:28:59;;;;;;;16.85;12.80;;;9.30;99.90;;;;;;5074854;28;20399;-85
2022/03/17 09:31:26;;;;;;;15.98;12.45;;;9.30;99.90;;;;;;5074932;28;20074;-87
2022/03/17 09:33:51;;;;;;;16.95;12.88;;;9.30;99.90;;;;;;5074803;28;20024;-84
2022/03/17 09:36:17;;;;;;;17.85;13.13;;;9.30;99.90;;;;;;5074972;28;20113;-83
2022/03/17 09:38:44;;;;;;;18.85;13.10;;;9.30;99.90;;;;;;5074762;28;20517;-84
2022/03/17 09:41:32;;;;;;;15.43;11.52;;;9.30;99.90;;;;;;5074816;28;20028;-84
2022/03/17 09:43:58;;;;;;;16.38;12.27;;;9.40;99.90;;;;;;5075623;28;20051;-83
2022/03/17 09:46:26;;;;;;;17.40;12.98;;;9.30;99.90;;;;;;5074433;28;20141;-84
2022/03/17 09:48:53;;;;;;;18.48;12.38;;;9.30;99.90;;;;;;5074738;28;20093;-83
2022/03/17 09:51:23;;;;;;;17.52;12.23;;;9.40;99.90;;;;;;5093074;28;20430;-84
2022/03/17 09:53:53;;;;;;;18.45;13.15;;;9.40;99.90;;;;;;5092391;28;20111;-84
2022/03/17 09:56:23;;;;;;;17.08;13.15;;;9.40;99.90;;;;;;5092403;28;20023;-84
2022/03/17 09:58:50;;;;;;;16.73;12.30;;;9.40;99.90;;;;;;5074301;28;20024;-86
2022/03/17 10:01:17;;;;;;;21.63;14.32;;;9.40;99.90;;;;;;5074377;28;20064;-84
2022/03/17 10:03:44;;;;;;;16.90;12.13;;;9.40;99.90;;;;;;5074595;28;20539;-84
2022/03/17 10:06:10;;;;;;;16.90;13.00;;;9.40;99.90;;;;;;5074501;28;20024;-84
2022/03/17 10:08:38;;;;;;;15.98;12.35;;;9.40;99.90;;;;;;5074553;28;20067;-82
2022/03/17 10:11:03;;;;;;;16.02;12.18;;;9.40;99.90;;;;;;5078090;28;20086;-83
2022/03/17 10:13:29;;;;;;;16.52;11.75;;;9.40;99.90;;;;;;5078188;28;20028;-83
2022/03/17 10:16:10;;;;;;;14.70;11.35;;;9.40;99.90;;;;;;5078902;28;20145;-82
2022/03/17 10:18:39;;;;;;;20.17;13.65;;;9.40;99.90;;;;;;5096042;28;20479;-82
2022/03/17 10:21:24;;;;;;;18.45;13.40;;;9.50;99.90;;;;;;5073964;28;20063;-82
2022/03/17 10:24:00;;;;;;;17.02;11.70;;;9.50;99.90;;;;;;5074110;28;20054;-83
2022/03/17 10:26:30;;;;;;;16.63;11.27;;;9.50;99.90;;;;;;5074132;28;20116;-82
2022/03/17 10:29:25;;;;;;;15.68;12.07;;;9.40;99.90;;;;;;5074011;28;20032;-82
2022/03/17 10:32:01;;;;;;;14.65;11.70;;;9.40;99.90;;;;;;5071957;28;20555;-83
2022/03/17 10:34:36;;;;;;;16.25;11.43;;;9.50;99.90;;;;;;5074364;28;20028;-82
2022/03/17 10:37:06;;;;;;;19.30;12.20;;;9.50;99.90;;;;;;5075649;28;20563;-82
2022/03/17 10:39:36;;;;;;;15.90;11.75;;;9.50;99.90;;;;;;5074261;28;20466;-82
2022/03/17 10:42:09;;;;;;;15.65;12.32;;;9.50;99.90;;;;;;5074501;28;20111;-82
2022/03/17 10:44:39;;;;;;;18.85;12.85;;;9.50;99.90;;;;;;5074132;28;20496;-82
2022/03/17 10:47:05;;;;;;;15.68;11.60;;;9.50;99.90;;;;;;5074161;28;20027;-83
2022/03/17 10:49:31;;;;;;;20.30;13.93;;;9.50;99.90;;;;;;5075386;28;20025;-82
2022/03/17 10:51:57;;;;;;;19.13;12.73;;;9.50;99.90;;;;;;5073827;28;20020;-82
2022/03/17 10:54:24;;;;;;;16.50;12.85;;;9.50;99.90;;;;;;5073551;28;20052;-82
2022/03/17 10:56:59;;;;;;;18.55;11.27;;;9.50;99.90;;;;;;5073545;28;20154;-83
2022/03/17 10:59:39;;;;;;;17.45;11.30;;;9.50;99.90;;;;;;5073489;28;20021;-83
2022/03/17 11:02:09;;;;;;;16.90;12.50;;;9.40;99.90;;;;;;5073424;28;20025;-82
2022/03/17 11:04:37;;;;;;;15.73;12.00;;;9.40;99.90;;;;;;5073860;28;20121;-82
2022/03/17 11:07:13;;;;;;;18.63;11.45;;;9.40;99.90;;;;;;5073647;28;20028;-82
2022/03/17 11:09:40;;;;;;;15.02;11.70;;;9.40;99.90;;;;;;5074901;28;20021;-83
2022/03/17 11:12:17;;;;;;;17.63;11.68;;;9.50;99.90;;;;;;5074941;28;20018;-83
2022/03/17 11:14:51;;;;;;;15.98;11.43;;;9.40;99.90;;;;;;5073615;28;20495;-82
2022/03/17 11:17:36;;;;;;;18.83;11.80;;;9.40;99.90;;;;;;5074458;28;20452;-82
2022/03/17 11:20:07;;;;;;;17.00;11.48;;;9.40;99.90;;;;;;5081126;28;20048;-82
2022/03/17 11:22:34;;;;;;;16.60;11.30;;;9.40;99.90;;;;;;5076141;28;20182;-83
2022/03/17 11:25:24;;;;;;;16.67;12.45;;;9.40;99.90;;;;;;5076406;28;20047;-82
2022/03/17 11:27:57;;;;;;;16.52;12.45;;;9.40;99.90;;;;;;5076471;28;20028;-82
2022/03/17 11:30:27;;;;;;;16.63;11.23;;;9.40;99.90;;;;;;5076669;28;20032;-82
2022/03/17 11:32:55;;;;;;;16.63;11.07;;;9.40;99.90;;;;;;5076555;28;20418;-82
2022/03/17 11:35:29;;;;;;;14.93;10.98;;;9.40;99.90;;;;;;5076164;28;20024;-83
2022/03/17 11:38:14;;;;;;;17.30;10.88;;;9.40;99.90;;;;;;5076142;28;20022;-83
2022/03/17 11:41:18;;;;;;;14.57;10.68;;;9.40;99.90;;;;;;5075876;28;20051;-83
2022/03/17 11:43:47;;;;;;;19.13;12.00;;;9.50;99.90;;;;;;5074896;28;20120;-82
2022/03/17 11:46:16;;;;;;;13.32;10.20;;;9.50;99.90;;;;;;5075910;28;20020;-82
2022/03/17 11:48:44;;;;;;;14.38;10.73;;;9.50;99.90;;;;;;5094120;28;20020;-82
2022/03/17 11:51:12;;;;;;;16.17;10.98;;;9.50;99.90;;;;;;5094096;28;20020;-82
2022/03/17 11:53:45;;;;;;;17.20;11.13;;;9.50;99.90;;;;;;5075736;28;20024;-82
2022/03/17 11:56:32;;;;;;;12.40;10.13;;;9.50;99.90;;;;;;5075641;28;20032;-83
2022/03/17 11:58:58;;;;;;;16.35;11.02;;;9.50;99.90;;;;;;5075719;28;20094;-82
2022/03/17 12:01:33;;;;;;;17.58;10.73;;;9.50;99.90;;;;;;5075544;28;20032;-82
2022/03/17 12:03:59;;;;;;;14.60;10.73;;;9.50;99.90;;;;;;5075323;28;20032;-82
2022/03/17 12:06:39;;;;;;;16.67;10.75;;;9.50;99.90;;;;;;5075516;28;20028;-85
2022/03/17 12:09:13;;;;;;;14.82;10.60;;;9.50;99.90;;;;;;5075450;28;20020;-85
2022/03/17 12:11:47;;;;;;;;;;;9.50;99.90;;;;;;5076102;28;20051;-80
2022/03/17 12:14:18;;;;;;;21.17;11.90;;;9.50;99.90;;;;;;5094006;28;19939;-83
2022/03/17 12:16:44;;;;;;;14.32;10.90;;;9.50;99.90;;;;;;5094230;28;20486;-83
2022/03/17 12:19:39;;;;;;;15.95;10.85;;;9.50;99.90;;;;;;5093914;28;20103;-83
2022/03/17 12:22:06;;;;;;;18.35;11.38;;;9.40;99.90;;;;;;5075947;28;20051;-83
2022/03/17 12:24:54;;;;;;;18.30;11.80;;;9.50;99.90;;;;;;5075509;28;20035;-81
2022/03/17 12:27:30;;;;;;;16.35;11.15;;;9.50;99.90;;;;;;5075549;28;20491;-83
2022/03/17 12:30:13;;;;;;;17.23;11.80;;;9.40;99.90;;;;;;5075595;28;20379;-83
2022/03/17 12:32:44;;;;;;;20.08;12.68;;;9.50;99.90;;;;;;5075387;28;20020;-84
2022/03/17 12:35:10;;;;;;;17.42;11.20;;;9.40;99.90;;;;;;5093642;28;20055;-83
2022/03/17 12:37:38;;;;;;;19.85;13.98;;;9.50;99.90;;;;;;5075343;28;20020;-81
2022/03/17 12:40:23;;;;;;;19.10;12.57;;;9.50;99.90;;;;;;5075126;28;20452;-81
2022/03/17 12:42:51;;;;;;;21.75;13.48;;;9.50;99.90;;;;;;5093176;28;20016;-81
2022/03/17 12:45:20;;;;;;;19.27;13.90;;;9.50;99.90;;;;;;5093269;28;20023;-81
2022/03/17 12:47:47;;;;;;;25.20;14.13;;;9.40;99.90;;;;;;5093224;28;20047;-81
2022/03/17 12:50:15;;;;;;;27.42;15.00;;;9.50;99.90;;;;;;5093317;28;20486;-81
2022/03/17 12:52:43;;;;;;;18.77;13.13;;;9.50;99.90;;;;;;5075071;28;20059;-81
2022/03/17 12:55:10;;;;;;;17.30;12.43;;;9.50;99.90;;;;;;5074978;28;20066;-80
2022/03/17 12:57:37;;;;;;;21.88;14.50;;;9.50;99.90;;;;;;5075003;28;20032;-80